createdAt,value
2023-03-05T00:01:37.148Z,48.79
2023-03-05T00:04:06.609Z,49.44
2023-03-05T00:06:38.231Z,48.88
2023-03-05T00:09:06.766Z,49.25
2023-03-05T00:11:40.279Z,49.62
2023-03-05T00:14:08.801Z,49.23
2023-03-05T00:16:37.761Z,49.24
2023-03-05T00:19:06.714Z,49.20
2023-03-05T00:21:37.322Z,49.25
2023-03-05T00:24:08.091Z,49.33
2023-03-05T00:26:38.087Z,49.05
2023-03-05T00:29:07.463Z,49.13
2023-03-05T00:31:41.784Z,49.13
2023-03-05T00:34:12.811Z,48.87
2023-03-05T00:36:42.790Z,49.17
2023-03-05T00:39:12.305Z,48.84
2023-03-05T00:41:41.301Z,48.87
2023-03-05T00:44:10.334Z,48.81
2023-03-05T00:46:39.257Z,48.68
2023-03-05T00:49:09.284Z,48.67
2023-03-05T00:51:40.710Z,48.46
2023-03-05T00:54:09.326Z,48.23
2023-03-05T00:56:47.305Z,48.28
2023-03-05T00:59:27.472Z,48.01
2023-03-05T01:01:56.378Z,47.77
2023-03-05T01:04:27.872Z,47.23
2023-03-05T01:06:56.748Z,47.00
2023-03-05T01:09:26.872Z,47.00
2023-03-05T01:11:56.228Z,46.47
2023-03-05T01:14:25.746Z,46.67
2023-03-05T01:16:54.860Z,46.33
2023-03-05T01:19:23.614Z,46.25
2023-03-05T01:21:52.436Z,45.57
2023-03-05T01:24:21.360Z,45.31
2023-03-05T01:26:50.153Z,44.44
2023-03-05T01:29:19.082Z,44.21
2023-03-05T01:31:47.938Z,43.35
2023-03-05T01:34:16.663Z,42.79
2023-03-05T01:36:50.574Z,42.31
2023-03-05T01:39:19.463Z,42.25
2023-03-05T01:41:47.903Z,41.54
2023-03-05T01:44:25.543Z,40.38
2023-03-05T01:46:54.380Z,40.14
2023-03-05T01:49:26.728Z,39.53
2023-03-05T01:52:11.217Z,38.34
2023-03-05T01:54:51.745Z,38.29
2023-03-05T01:57:35.938Z,37.80
2023-03-05T02:00:17.656Z,37.31
2023-03-05T02:02:48.647Z,36.06
2023-03-05T02:05:27.668Z,36.04
2023-03-05T02:08:07.989Z,35.93
2023-03-05T02:10:43.311Z,35.84
2023-03-05T02:13:15.194Z,36.33
2023-03-05T02:15:45.229Z,36.28
2023-03-05T02:18:17.091Z,36.41
2023-03-05T02:20:56.990Z,35.72
2023-03-05T02:23:29.090Z,35.45
2023-03-05T02:25:57.732Z,35.38
2023-03-05T02:28:35.779Z,34.86
2023-03-05T02:31:13.740Z,34.70
2023-03-05T02:33:43.292Z,34.28
2023-03-05T02:36:12.981Z,34.00
2023-03-05T02:38:41.473Z,33.47
2023-03-05T02:41:10.377Z,33.19
2023-03-05T02:43:38.927Z,33.06
2023-03-05T02:46:08.351Z,32.46
2023-03-05T02:48:36.603Z,32.09
2023-03-05T02:51:05.268Z,32.02
2023-03-05T02:53:33.705Z,31.83
2023-03-05T02:56:02.021Z,32.28
2023-03-05T02:58:34.308Z,32.17
2023-03-05T03:01:02.757Z,31.73
2023-03-05T03:03:31.766Z,31.45
2023-03-05T03:06:01.219Z,31.38
2023-03-05T03:08:29.454Z,31.58
2023-03-05T03:11:09.946Z,31.11
2023-03-05T03:13:39.289Z,30.85
2023-03-05T03:16:10.106Z,30.80
2023-03-05T03:18:38.356Z,30.58
2023-03-05T03:21:06.766Z,30.50
2023-03-05T03:23:34.974Z,29.97
2023-03-05T03:26:02.929Z,29.17
2023-03-05T03:28:31.232Z,28.94
2023-03-05T03:30:59.325Z,28.57
2023-03-05T03:33:28.156Z,28.70
2023-03-05T03:36:00.591Z,28.79
2023-03-05T03:38:29.802Z,28.33
2023-03-05T03:40:58.209Z,27.76
2023-03-05T03:43:26.757Z,28.41
2023-03-05T03:45:54.877Z,28.23
2023-03-05T03:48:22.844Z,27.40
2023-03-05T03:50:50.984Z,27.40
2023-03-05T03:53:18.931Z,26.83
2023-03-05T03:55:49.581Z,27.27
2023-03-05T03:58:17.642Z,27.21
2023-03-05T04:00:45.971Z,27.19
2023-03-05T04:03:14.057Z,26.52
2023-03-05T04:05:42.420Z,26.88
2023-03-05T04:08:12.589Z,27.08
2023-03-05T04:10:40.644Z,27.25
2023-03-05T04:13:09.232Z,26.90
2023-03-05T04:15:37.608Z,27.08
2023-03-05T04:18:05.580Z,26.59
2023-03-05T04:20:34.195Z,26.82
2023-03-05T04:23:02.199Z,26.11
2023-03-05T04:25:30.368Z,26.81
2023-03-05T04:27:58.947Z,26.14
2023-03-05T04:30:27.123Z,25.82
2023-03-05T04:32:55.380Z,26.21
2023-03-05T04:35:23.315Z,25.50
2023-03-05T04:37:51.746Z,25.41
2023-03-05T04:40:21.103Z,25.28
2023-03-05T04:42:49.676Z,24.75
2023-03-05T04:45:17.854Z,25.66
2023-03-05T04:47:46.377Z,25.68
2023-03-05T04:50:14.433Z,25.38
2023-03-05T04:52:43.059Z,25.24
2023-03-05T04:55:12.488Z,25.20
2023-03-05T04:57:40.839Z,25.13
2023-03-05T05:00:17.394Z,24.29
2023-03-05T05:02:47.068Z,25.26
2023-03-05T05:05:16.909Z,25.26
2023-03-05T05:07:45.531Z,25.11
2023-03-05T05:10:13.908Z,24.69
2023-03-05T05:12:42.604Z,25.01
2023-03-05T05:15:12.551Z,24.59
2023-03-05T05:17:40.652Z,24.72
2023-03-05T05:20:11.700Z,24.38
2023-03-05T05:22:40.215Z,24.01
2023-03-05T05:25:08.810Z,23.98
2023-03-05T05:27:37.426Z,23.65
2023-03-05T05:30:06.350Z,23.80
2023-03-05T05:32:34.463Z,23.76
2023-03-05T05:35:02.777Z,23.84
2023-03-05T05:37:31.329Z,23.88
2023-03-05T05:40:00.021Z,24.17
2023-03-05T05:42:29.946Z,24.90
2023-03-05T05:44:58.625Z,24.24
2023-03-05T05:47:28.115Z,23.39
2023-03-05T05:49:56.954Z,24.15
2023-03-05T05:52:25.522Z,23.91
2023-03-05T05:54:53.828Z,23.37
2023-03-05T05:57:22.651Z,23.51
2023-03-05T05:59:51.739Z,23.34
2023-03-05T06:02:20.088Z,23.32
2023-03-05T06:04:52.348Z,23.28
2023-03-05T06:07:20.557Z,23.16
2023-03-05T06:09:49.205Z,23.88
2023-03-05T06:12:18.018Z,23.81
2023-03-05T06:14:46.239Z,23.64
2023-03-05T06:17:29.835Z,24.50
2023-03-05T06:19:58.881Z,23.97
2023-03-05T06:22:26.745Z,23.92
2023-03-05T06:24:54.557Z,24.33
2023-03-05T06:27:22.606Z,24.00
2023-03-05T06:29:53.498Z,23.94
2023-03-05T06:32:21.646Z,24.45
2023-03-05T06:34:50.316Z,24.47
2023-03-05T06:37:18.350Z,24.42
2023-03-05T06:39:45.942Z,24.53
2023-03-05T06:42:14.305Z,23.45
2023-03-05T06:44:42.832Z,23.32
2023-03-05T06:47:10.925Z,22.96
2023-03-05T06:49:39.345Z,23.27
2023-03-05T06:52:10.042Z,22.60
2023-03-05T06:54:37.551Z,21.93
2023-03-05T06:57:05.076Z,21.76
2023-03-05T06:59:33.142Z,21.95
2023-03-05T07:02:00.694Z,21.79
2023-03-05T07:04:28.692Z,22.04
2023-03-05T07:06:57.138Z,21.74
2023-03-05T07:09:25.069Z,21.90
2023-03-05T07:11:53.103Z,21.50
2023-03-05T07:14:21.027Z,21.89
2023-03-05T07:16:48.443Z,22.19
2023-03-05T07:19:16.537Z,22.57
2023-03-05T07:21:44.340Z,22.31
2023-03-05T07:24:11.933Z,22.81
2023-03-05T07:26:40.044Z,22.92
2023-03-05T07:29:07.567Z,23.35
2023-03-05T07:31:34.973Z,23.39
2023-03-05T07:34:03.157Z,23.88
2023-03-05T07:36:31.128Z,24.05
2023-03-05T07:38:58.984Z,23.80
2023-03-05T07:41:26.932Z,24.13
2023-03-05T07:43:54.794Z,24.07
2023-03-05T07:46:25.214Z,23.71
2023-03-05T07:48:54.606Z,23.56
2023-03-05T07:51:22.987Z,22.75
2023-03-05T07:53:51.007Z,22.83
2023-03-05T07:56:25.504Z,23.75
2023-03-05T07:58:53.480Z,23.48
2023-03-05T08:01:21.610Z,23.65
2023-03-05T08:03:49.758Z,22.89
2023-03-05T08:06:17.202Z,23.78
2023-03-05T08:08:45.223Z,22.56
2023-03-05T08:11:14.414Z,22.73
2023-03-05T08:13:43.030Z,23.18
2023-03-05T08:16:15.499Z,23.33
2023-03-05T08:18:43.564Z,22.76
2023-03-05T08:21:22.709Z,23.26
2023-03-05T08:23:50.647Z,23.48
2023-03-05T08:26:20.731Z,23.84
2023-03-05T08:28:48.737Z,23.17
2023-03-05T08:31:16.965Z,23.95
2023-03-05T08:33:44.518Z,24.18
2023-03-05T08:36:13.211Z,23.38
2023-03-05T08:38:41.945Z,23.93
2023-03-05T08:41:09.634Z,23.94
2023-03-05T08:43:37.592Z,24.11
2023-03-05T08:46:05.912Z,24.23
2023-03-05T08:48:34.388Z,24.58
2023-03-05T08:51:07.334Z,24.75
2023-03-05T08:53:35.456Z,24.72
2023-03-05T08:56:03.594Z,25.41
2023-03-05T08:58:31.515Z,25.12
2023-03-05T09:00:59.182Z,24.86
2023-03-05T09:03:26.932Z,24.88
2023-03-05T09:05:54.796Z,24.91
2023-03-05T09:08:22.615Z,25.50
2023-03-05T09:10:50.336Z,25.96
2023-03-05T09:13:17.967Z,24.45
2023-03-05T09:15:45.826Z,24.99
2023-03-05T09:18:13.951Z,25.46
2023-03-05T09:20:42.269Z,25.48
2023-03-05T09:23:10.457Z,25.01
2023-03-05T09:25:41.401Z,25.18
2023-03-05T09:28:09.283Z,25.50
2023-03-05T09:30:37.177Z,25.54
2023-03-05T09:33:05.167Z,25.56
2023-03-05T09:35:35.739Z,25.85
2023-03-05T09:38:04.123Z,25.80
2023-03-05T09:40:51.495Z,25.83
2023-03-05T09:43:35.426Z,25.80
2023-03-05T09:46:06.879Z,25.68
2023-03-05T09:48:47.651Z,25.32
2023-03-05T09:51:24.537Z,26.27
2023-03-05T09:54:03.245Z,26.69
2023-03-05T09:56:40.154Z,26.77
2023-03-05T09:59:40.700Z,26.39
2023-03-05T10:02:32.188Z,26.71
2023-03-05T10:05:20.498Z,27.25
2023-03-05T10:07:55.227Z,27.39
2023-03-05T10:10:37.150Z,27.98
2023-03-05T10:13:11.843Z,28.19
2023-03-05T10:15:52.211Z,28.35
2023-03-05T10:18:52.589Z,28.90
2023-03-05T10:21:32.454Z,29.20
2023-03-05T10:24:14.842Z,29.50
2023-03-05T10:27:20.599Z,29.65
2023-03-05T10:29:57.858Z,29.97
2023-03-05T10:32:47.003Z,30.56
2023-03-05T10:35:14.962Z,30.63
2023-03-05T10:38:01.003Z,31.07
2023-03-05T10:40:42.590Z,30.78
2023-03-05T10:43:31.833Z,31.37
2023-03-05T10:45:59.552Z,30.96
2023-03-05T10:48:39.751Z,31.33
2023-03-05T10:51:23.359Z,31.68
2023-03-05T10:53:58.353Z,31.78
2023-03-05T10:56:27.440Z,32.06
2023-03-05T10:58:54.895Z,32.12
2023-03-05T11:01:28.250Z,31.74
2023-03-05T11:04:00.047Z,31.95
2023-03-05T11:06:35.566Z,31.98
2023-03-05T11:09:24.140Z,32.58
2023-03-05T11:12:05.946Z,32.21
2023-03-05T11:14:34.030Z,32.38
2023-03-05T11:17:02.670Z,32.55
2023-03-05T11:19:33.151Z,32.65
2023-03-05T11:22:20.958Z,32.85
2023-03-05T11:25:15.494Z,33.00
2023-03-05T11:27:51.034Z,33.73
2023-03-05T11:30:27.188Z,33.80
2023-03-05T11:33:15.695Z,33.86
2023-03-05T11:35:44.324Z,33.84
2023-03-05T11:38:24.628Z,34.31
2023-03-05T11:40:54.238Z,34.62
2023-03-05T11:43:23.608Z,34.79
2023-03-05T11:46:02.770Z,34.78
2023-03-05T11:48:36.227Z,35.37
2023-03-05T11:51:34.374Z,34.99
2023-03-05T11:54:06.772Z,35.09
2023-03-05T11:56:37.239Z,35.67
2023-03-05T11:59:18.360Z,35.35
2023-03-05T12:01:53.684Z,35.67
2023-03-05T12:04:21.208Z,35.61
2023-03-05T12:06:57.558Z,35.34
2023-03-05T12:09:40.925Z,35.63
2023-03-05T12:12:32.226Z,35.18
2023-03-05T12:15:12.086Z,34.93
2023-03-05T12:17:46.493Z,35.22
2023-03-05T12:20:38.873Z,35.71
2023-03-05T12:23:06.712Z,35.59
2023-03-05T12:25:45.612Z,35.40
2023-03-05T12:28:16.346Z,35.41
2023-03-05T12:30:43.958Z,35.46
2023-03-05T12:33:30.060Z,35.68
2023-03-05T12:36:22.545Z,35.42
2023-03-05T12:38:56.785Z,35.79
2023-03-05T12:41:25.904Z,36.39
2023-03-05T12:44:07.486Z,36.08
2023-03-05T12:46:45.379Z,36.00
2023-03-05T12:49:23.758Z,36.32
2023-03-05T12:51:55.477Z,36.38
2023-03-05T12:54:28.020Z,36.44
2023-03-05T12:56:57.196Z,36.80
2023-03-05T12:59:30.628Z,36.66
2023-03-05T13:02:00.951Z,36.62
2023-03-05T13:04:30.742Z,36.67
2023-03-05T13:07:02.319Z,36.83
2023-03-05T13:09:33.528Z,36.76
2023-03-05T13:12:01.175Z,36.70
2023-03-05T13:14:41.409Z,36.71
2023-03-05T13:17:38.197Z,37.00
2023-03-05T13:20:27.962Z,36.57
2023-03-05T13:23:18.384Z,36.11
2023-03-05T13:25:55.853Z,36.62
2023-03-05T13:28:24.077Z,36.40
2023-03-05T13:30:59.032Z,36.77
2023-03-05T13:33:32.080Z,36.67
2023-03-05T13:35:59.414Z,36.60
2023-03-05T13:38:40.723Z,36.75
2023-03-05T13:41:11.608Z,36.68
2023-03-05T13:43:44.003Z,36.76
2023-03-05T13:46:11.468Z,37.02
2023-03-05T13:48:39.439Z,36.48
2023-03-05T13:51:09.080Z,36.74
2023-03-05T13:53:36.939Z,36.71
2023-03-05T13:56:06.861Z,36.83
2023-03-05T13:58:52.187Z,37.10
2023-03-05T14:01:40.783Z,37.64
2023-03-05T14:04:14.489Z,37.37
2023-03-05T14:07:06.106Z,37.09
2023-03-05T14:09:40.090Z,37.30
2023-03-05T14:12:30.534Z,37.36
2023-03-05T14:14:59.847Z,37.58
2023-03-05T14:17:27.569Z,37.77
2023-03-05T14:20:13.282Z,37.55
2023-03-05T14:22:42.891Z,37.75
2023-03-05T14:25:39.958Z,38.07
2023-03-05T14:28:19.881Z,37.97
2023-03-05T14:30:48.523Z,38.47
2023-03-05T14:33:28.652Z,38.62
2023-03-05T14:35:57.510Z,38.38
2023-03-05T14:38:27.753Z,38.31
2023-03-05T14:40:56.410Z,38.69
2023-03-05T14:43:24.207Z,38.39
2023-03-05T14:45:52.035Z,38.73
2023-03-05T14:48:19.840Z,38.50
2023-03-05T14:50:51.495Z,38.63
2023-03-05T14:53:23.818Z,38.77
2023-03-05T14:55:58.289Z,39.06
2023-03-05T14:58:28.404Z,38.79
2023-03-05T15:00:56.996Z,39.13
2023-03-05T15:03:24.577Z,39.39
2023-03-05T15:05:53.415Z,39.54
2023-03-05T15:08:23.019Z,39.38
2023-03-05T15:10:50.994Z,39.77
2023-03-05T15:13:18.864Z,40.21
2023-03-05T15:15:46.773Z,39.89
2023-03-05T15:18:15.950Z,39.70
2023-03-05T15:20:43.819Z,39.77
2023-03-05T15:23:12.847Z,39.74
2023-03-05T15:25:40.589Z,39.61
2023-03-05T15:28:09.484Z,39.66
2023-03-05T15:30:41.316Z,39.60
2023-03-05T15:33:10.826Z,39.51
2023-03-05T15:35:39.131Z,39.92
2023-03-05T15:38:06.670Z,40.42
2023-03-05T15:40:34.488Z,40.76
2023-03-05T15:43:02.092Z,40.86
2023-03-05T15:45:31.603Z,41.38
2023-03-05T15:47:59.842Z,41.36
2023-03-05T15:50:27.222Z,41.71
2023-03-05T15:52:55.082Z,41.75
2023-03-05T15:55:22.500Z,42.34
2023-03-05T15:57:51.177Z,42.04
2023-03-05T16:00:27.186Z,42.59
2023-03-05T16:02:54.658Z,42.64
2023-03-05T16:05:22.420Z,43.05
2023-03-05T16:07:51.316Z,42.59
2023-03-05T16:10:21.493Z,42.73
2023-03-05T16:12:50.204Z,42.96
2023-03-05T16:15:18.718Z,43.11
2023-03-05T16:17:47.776Z,43.81
2023-03-05T16:20:15.478Z,43.70
2023-03-05T16:22:43.471Z,43.98
2023-03-05T16:25:11.044Z,44.17
2023-03-05T16:27:38.703Z,44.15
2023-03-05T16:30:07.313Z,44.49
2023-03-05T16:32:34.939Z,44.40
2023-03-05T16:35:02.672Z,44.34
2023-03-05T16:37:30.037Z,44.96
2023-03-05T16:40:00.976Z,45.10
2023-03-05T16:42:28.636Z,45.16
2023-03-05T16:44:56.617Z,45.25
2023-03-05T16:47:24.133Z,45.24
2023-03-05T16:49:51.517Z,45.49
2023-03-05T16:52:20.831Z,45.65
2023-03-05T16:54:48.399Z,45.69
2023-03-05T16:57:16.147Z,45.56
2023-03-05T16:59:43.858Z,45.70
2023-03-05T17:02:12.980Z,45.80
2023-03-05T17:04:40.783Z,46.24
2023-03-05T17:07:08.503Z,46.34
2023-03-05T17:09:36.226Z,46.77
2023-03-05T17:12:05.149Z,47.21
2023-03-05T17:14:32.740Z,46.51
2023-03-05T17:17:01.061Z,46.87
2023-03-05T17:19:28.652Z,47.14
2023-03-05T17:21:55.897Z,46.88
2023-03-05T17:24:23.484Z,46.90
2023-03-05T17:26:51.132Z,46.97
2023-03-05T17:29:19.366Z,46.81
2023-03-05T17:31:46.897Z,46.51
2023-03-05T17:34:15.710Z,46.36
2023-03-05T17:36:45.296Z,45.73
2023-03-05T17:39:13.587Z,45.67
2023-03-05T17:41:41.347Z,45.79
2023-03-05T17:44:09.065Z,45.67
2023-03-05T17:46:36.699Z,45.59
2023-03-05T17:49:04.051Z,45.31
2023-03-05T17:51:31.366Z,44.95
2023-03-05T17:53:59.451Z,44.40
2023-03-05T17:56:26.981Z,44.51
2023-03-05T17:58:54.592Z,44.44
2023-03-05T18:01:23.844Z,44.19
2023-03-05T18:03:51.508Z,44.54
2023-03-05T18:06:19.130Z,44.45
2023-03-05T18:08:46.909Z,44.02
2023-03-05T18:11:14.473Z,44.15
2023-03-05T18:13:43.093Z,44.50
2023-03-05T18:16:10.881Z,44.53
2023-03-05T18:18:38.289Z,44.64
2023-03-05T18:21:05.952Z,44.91
2023-03-05T18:23:33.506Z,44.40
2023-03-05T18:26:00.860Z,44.75
2023-03-05T18:28:28.873Z,44.48
2023-03-05T18:30:56.254Z,43.76
2023-03-05T18:33:24.797Z,43.73
2023-03-05T18:35:52.849Z,43.51
2023-03-05T18:38:25.226Z,43.27
2023-03-05T18:40:53.154Z,43.15
2023-03-05T18:43:21.142Z,43.09
2023-03-05T18:45:49.491Z,43.15
2023-03-05T18:48:17.576Z,42.74
2023-03-05T18:50:45.218Z,43.01
2023-03-05T18:53:13.588Z,43.12
2023-03-05T18:55:45.088Z,43.09
2023-03-05T18:58:15.509Z,43.03
2023-03-05T19:00:44.939Z,43.26
2023-03-05T19:03:12.671Z,43.07
2023-03-05T19:05:40.674Z,43.02
2023-03-05T19:08:08.316Z,43.23
2023-03-05T19:10:35.788Z,43.19
2023-03-05T19:13:39.247Z,43.20
2023-03-05T19:16:14.645Z,42.99
2023-03-05T19:18:57.013Z,43.18
2023-03-05T19:21:24.678Z,43.34
2023-03-05T19:23:51.924Z,43.15
2023-03-05T19:26:19.080Z,43.44
2023-03-05T19:28:46.587Z,43.27
2023-03-05T19:31:17.694Z,43.10
2023-03-05T19:33:45.017Z,42.79
2023-03-05T19:36:12.468Z,42.81
2023-03-05T19:38:40.362Z,42.67
2023-03-05T19:41:08.653Z,42.45
2023-03-05T19:43:36.169Z,42.50
2023-03-05T19:46:04.722Z,42.46
2023-03-05T19:48:32.495Z,42.92
2023-03-05T19:51:00.679Z,42.75
2023-03-05T19:53:28.149Z,42.88
2023-03-05T19:55:56.398Z,43.24
2023-03-05T19:58:23.994Z,43.17
2023-03-05T20:00:51.770Z,43.20
2023-03-05T20:03:18.965Z,42.80
2023-03-05T20:05:46.474Z,42.95
2023-03-05T20:08:13.865Z,43.18
2023-03-05T20:10:41.077Z,42.80
2023-03-05T20:13:08.650Z,43.03
2023-03-05T20:15:36.118Z,42.87
2023-03-05T20:18:03.852Z,42.55
2023-03-05T20:20:31.491Z,42.81
2023-03-05T20:22:58.875Z,42.89
2023-03-05T20:25:26.292Z,42.74
2023-03-05T20:27:53.862Z,42.83
2023-03-05T20:30:21.588Z,42.84
2023-03-05T20:32:49.274Z,43.57
2023-03-05T20:35:17.677Z,43.36
2023-03-05T20:38:05.294Z,43.52
2023-03-05T20:40:32.886Z,43.29
2023-03-05T20:43:00.249Z,43.26
2023-03-05T20:45:28.176Z,43.24
2023-03-05T20:47:55.421Z,43.06
2023-03-05T20:50:23.462Z,43.19
2023-03-05T20:52:50.721Z,43.52
2023-03-05T20:55:18.041Z,43.33
2023-03-05T20:57:46.357Z,43.90
2023-03-05T21:00:14.398Z,43.99
2023-03-05T21:02:41.751Z,44.56
2023-03-05T21:05:09.388Z,44.48
2023-03-05T21:07:36.918Z,44.53
2023-03-05T21:10:04.640Z,44.00
2023-03-05T21:12:32.995Z,44.24
2023-03-05T21:15:01.151Z,44.46
2023-03-05T21:17:28.605Z,44.06
2023-03-05T21:19:56.423Z,43.87
2023-03-05T21:22:24.061Z,43.93
2023-03-05T21:25:15.584Z,43.80
2023-03-05T21:27:43.509Z,43.87
2023-03-05T21:30:11.523Z,44.66
2023-03-05T21:32:39.173Z,44.85
2023-03-05T21:35:07.117Z,44.62
2023-03-05T21:37:36.595Z,45.15
2023-03-05T21:40:04.888Z,45.10
2023-03-05T21:42:32.642Z,45.27
2023-03-05T21:44:59.857Z,45.06
2023-03-05T21:47:27.167Z,45.37
2023-03-05T21:49:54.511Z,44.90
2023-03-05T21:52:22.603Z,45.16
2023-03-05T21:54:49.906Z,44.95
2023-03-05T21:57:17.624Z,45.07
2023-03-05T21:59:45.277Z,45.23
2023-03-05T22:02:13.355Z,44.76
2023-03-05T22:04:40.800Z,44.57
2023-03-05T22:07:08.297Z,44.48
2023-03-05T22:09:35.959Z,44.80
2023-03-05T22:12:04.534Z,44.66
2023-03-05T22:14:32.436Z,44.10
2023-03-05T22:17:01.904Z,44.27
2023-03-05T22:19:30.234Z,44.42
2023-03-05T22:21:57.992Z,44.44
2023-03-05T22:24:25.732Z,44.85
2023-03-05T22:26:53.259Z,44.47
2023-03-05T22:29:21.235Z,44.59
2023-03-05T22:31:48.542Z,44.56
2023-03-05T22:34:16.029Z,44.19
2023-03-05T22:36:43.389Z,44.82
2023-03-05T22:39:10.718Z,43.87
2023-03-05T22:41:40.972Z,44.10
2023-03-05T22:44:08.842Z,44.49
2023-03-05T22:46:36.735Z,43.99
2023-03-05T22:49:03.960Z,44.26
2023-03-05T22:51:31.646Z,44.17
2023-03-05T22:53:59.105Z,43.86
2023-03-05T22:56:26.359Z,43.96
2023-03-05T22:58:54.199Z,44.05
2023-03-05T23:01:24.228Z,43.74
2023-03-05T23:03:58.353Z,43.36
2023-03-05T23:06:26.186Z,43.49
2023-03-05T23:08:53.614Z,43.16
2023-03-05T23:11:21.058Z,43.21
2023-03-05T23:13:48.615Z,42.37
2023-03-05T23:16:16.456Z,42.00
2023-03-05T23:18:43.870Z,42.40
2023-03-05T23:21:11.288Z,41.94
2023-03-05T23:23:39.053Z,41.75
2023-03-05T23:26:06.386Z,41.54
2023-03-05T23:28:33.834Z,42.05
2023-03-05T23:31:02.708Z,42.36
2023-03-05T23:33:30.038Z,42.01
2023-03-05T23:35:59.041Z,42.16
2023-03-05T23:38:27.761Z,42.29
2023-03-05T23:40:57.622Z,42.15
2023-03-05T23:43:26.746Z,41.97
2023-03-05T23:45:54.917Z,42.41
2023-03-05T23:48:23.168Z,42.36
2023-03-05T23:50:50.881Z,42.80
2023-03-05T23:53:23.259Z,42.87
2023-03-05T23:55:50.924Z,43.30
2023-03-05T23:58:20.321Z,43.26
